sensor_id;sensor_type;location;lat;lon;timestamp;P1;durP1;ratioP1;P2;durP2;ratioP2
10979;SDS011;5543;51.734;8.744;2022-08-19T00:01:24;2.85;;;2.58;;
10979;SDS011;5543;51.734;8.744;2022-08-19T00:03:56;4.90;;;3.25;;
10979;SDS011;5543;51.734;8.744;2022-08-19T00:06:25;4.35;;;3.10;;
10979;SDS011;5543;51.734;8.744;2022-08-19T00:08:53;4.72;;;3.45;;
10979;SDS011;5543;51.734;8.744;2022-08-19T00:11:22;4.07;;;3.40;;
10979;SDS011;5543;51.734;8.744;2022-08-19T00:13:55;4.47;;;3.70;;
10979;SDS011;5543;51.734;8.744;2022-08-19T00:16:23;5.57;;;3.20;;
10979;SDS011;5543;51.734;8.744;2022-08-19T00:18:55;4.38;;;3.35;;
10979;SDS011;5543;51.734;8.744;2022-08-19T00:21:23;6.38;;;3.90;;
10979;SDS011;5543;51.734;8.744;2022-08-19T00:23:53;3.28;;;2.97;;
10979;SDS011;5543;51.734;8.744;2022-08-19T00:26:23;4.75;;;3.85;;
10979;SDS011;5543;51.734;8.744;2022-08-19T00:28:52;5.05;;;3.33;;
10979;SDS011;5543;51.734;8.744;2022-08-19T00:31:22;5.65;;;2.97;;
10979;SDS011;5543;51.734;8.744;2022-08-19T00:33:51;3.97;;;3.45;;
10979;SDS011;5543;51.734;8.744;2022-08-19T00:36:19;4.43;;;2.90;;
10979;SDS011;5543;51.734;8.744;2022-08-19T00:38:47;5.07;;;3.40;;
10979;SDS011;5543;51.734;8.744;2022-08-19T00:41:18;5.47;;;4.07;;
10979;SDS011;5543;51.734;8.744;2022-08-19T00:44:03;5.13;;;3.42;;
10979;SDS011;5543;51.734;8.744;2022-08-19T00:46:35;4.28;;;3.38;;
10979;SDS011;5543;51.734;8.744;2022-08-19T00:49:06;5.65;;;3.65;;
10979;SDS011;5543;51.734;8.744;2022-08-19T00:51:41;3.33;;;2.90;;
10979;SDS011;5543;51.734;8.744;2022-08-19T00:54:11;3.88;;;3.10;;
10979;SDS011;5543;51.734;8.744;2022-08-19T00:56:39;5.43;;;2.88;;
10979;SDS011;5543;51.734;8.744;2022-08-19T00:59:08;4.93;;;3.20;;
10979;SDS011;5543;51.734;8.744;2022-08-19T01:01:38;3.83;;;3.00;;
10979;SDS011;5543;51.734;8.744;2022-08-19T01:04:09;5.03;;;3.88;;
10979;SDS011;5543;51.734;8.744;2022-08-19T01:06:37;3.67;;;3.28;;
10979;SDS011;5543;51.734;8.744;2022-08-19T01:09:07;3.65;;;3.28;;
10979;SDS011;5543;51.734;8.744;2022-08-19T01:11:36;3.75;;;3.05;;
10979;SDS011;5543;51.734;8.744;2022-08-19T01:14:08;4.50;;;3.13;;
10979;SDS011;5543;51.734;8.744;2022-08-19T01:16:38;6.45;;;3.40;;
10979;SDS011;5543;51.734;8.744;2022-08-19T01:19:09;12.38;;;3.95;;
10979;SDS011;5543;51.734;8.744;2022-08-19T01:21:46;5.85;;;3.90;;
10979;SDS011;5543;51.734;8.744;2022-08-19T01:24:20;4.35;;;3.50;;
10979;SDS011;5543;51.734;8.744;2022-08-19T01:26:49;5.28;;;4.22;;
10979;SDS011;5543;51.734;8.744;2022-08-19T01:29:17;4.85;;;3.67;;
10979;SDS011;5543;51.734;8.744;2022-08-19T01:31:46;5.13;;;3.60;;
10979;SDS011;5543;51.734;8.744;2022-08-19T01:34:18;5.03;;;3.47;;
10979;SDS011;5543;51.734;8.744;2022-08-19T01:36:47;5.03;;;3.72;;
10979;SDS011;5543;51.734;8.744;2022-08-19T01:39:16;4.60;;;3.55;;
10979;SDS011;5543;51.734;8.744;2022-08-19T01:41:49;6.65;;;3.25;;
10979;SDS011;5543;51.734;8.744;2022-08-19T01:44:21;4.75;;;3.35;;
10979;SDS011;5543;51.734;8.744;2022-08-19T01:46:51;5.13;;;3.60;;
10979;SDS011;5543;51.734;8.744;2022-08-19T01:49:20;5.32;;;3.15;;
10979;SDS011;5543;51.734;8.744;2022-08-19T01:51:52;5.20;;;3.63;;
10979;SDS011;5543;51.734;8.744;2022-08-19T01:54:21;4.15;;;3.47;;
10979;SDS011;5543;51.734;8.744;2022-08-19T01:56:55;4.20;;;3.22;;
10979;SDS011;5543;51.734;8.744;2022-08-19T01:59:27;4.70;;;3.55;;
10979;SDS011;5543;51.734;8.744;2022-08-19T02:01:56;4.90;;;4.15;;
10979;SDS011;5543;51.734;8.744;2022-08-19T02:04:24;5.22;;;3.88;;
10979;SDS011;5543;51.734;8.744;2022-08-19T02:06:53;6.35;;;4.00;;
10979;SDS011;5543;51.734;8.744;2022-08-19T02:09:21;4.57;;;3.08;;
10979;SDS011;5543;51.734;8.744;2022-08-19T02:11:49;4.30;;;3.30;;
10979;SDS011;5543;51.734;8.744;2022-08-19T02:14:19;4.63;;;3.38;;
10979;SDS011;5543;51.734;8.744;2022-08-19T02:16:47;3.92;;;3.20;;
10979;SDS011;5543;51.734;8.744;2022-08-19T02:19:15;4.85;;;3.33;;
10979;SDS011;5543;51.734;8.744;2022-08-19T02:21:43;4.28;;;3.15;;
10979;SDS011;5543;51.734;8.744;2022-08-19T02:24:12;6.30;;;3.85;;
10979;SDS011;5543;51.734;8.744;2022-08-19T02:26:40;5.13;;;3.92;;
10979;SDS011;5543;51.734;8.744;2022-08-19T02:29:08;6.80;;;4.03;;
10979;SDS011;5543;51.734;8.744;2022-08-19T02:31:38;4.78;;;3.53;;
10979;SDS011;5543;51.734;8.744;2022-08-19T02:34:06;6.30;;;4.20;;
10979;SDS011;5543;51.734;8.744;2022-08-19T02:36:34;5.90;;;3.33;;
10979;SDS011;5543;51.734;8.744;2022-08-19T02:39:07;4.97;;;4.22;;
10979;SDS011;5543;51.734;8.744;2022-08-19T02:41:34;7.68;;;4.68;;
10979;SDS011;5543;51.734;8.744;2022-08-19T02:44:03;5.70;;;4.43;;
10979;SDS011;5543;51.734;8.744;2022-08-19T02:46:53;4.18;;;3.42;;
10979;SDS011;5543;51.734;8.744;2022-08-19T02:49:21;7.80;;;4.32;;
10979;SDS011;5543;51.734;8.744;2022-08-19T02:51:49;5.85;;;4.07;;
10979;SDS011;5543;51.734;8.744;2022-08-19T02:54:18;6.72;;;4.25;;
10979;SDS011;5543;51.734;8.744;2022-08-19T02:56:46;8.55;;;4.47;;
10979;SDS011;5543;51.734;8.744;2022-08-19T02:59:14;6.00;;;4.65;;
10979;SDS011;5543;51.734;8.744;2022-08-19T03:01:45;7.13;;;4.68;;
10979;SDS011;5543;51.734;8.744;2022-08-19T03:04:15;5.32;;;3.30;;
10979;SDS011;5543;51.734;8.744;2022-08-19T03:06:44;6.93;;;3.88;;
10979;SDS011;5543;51.734;8.744;2022-08-19T03:09:13;6.32;;;4.25;;
10979;SDS011;5543;51.734;8.744;2022-08-19T03:11:42;7.88;;;4.60;;
10979;SDS011;5543;51.734;8.744;2022-08-19T03:14:11;5.80;;;3.88;;
10979;SDS011;5543;51.734;8.744;2022-08-19T03:16:41;7.40;;;4.82;;
10979;SDS011;5543;51.734;8.744;2022-08-19T03:19:13;7.95;;;5.15;;
10979;SDS011;5543;51.734;8.744;2022-08-19T03:21:45;6.70;;;4.13;;
10979;SDS011;5543;51.734;8.744;2022-08-19T03:24:14;9.95;;;5.70;;
10979;SDS011;5543;51.734;8.744;2022-08-19T03:26:44;5.93;;;4.07;;
10979;SDS011;5543;51.734;8.744;2022-08-19T03:29:14;6.40;;;4.40;;
10979;SDS011;5543;51.734;8.744;2022-08-19T03:31:56;7.13;;;4.93;;
10979;SDS011;5543;51.734;8.744;2022-08-19T03:34:28;8.55;;;5.82;;
10979;SDS011;5543;51.734;8.744;2022-08-19T03:36:58;6.00;;;4.93;;
10979;SDS011;5543;51.734;8.744;2022-08-19T03:39:30;8.20;;;4.30;;
10979;SDS011;5543;51.734;8.744;2022-08-19T03:41:58;9.77;;;5.97;;
10979;SDS011;5543;51.734;8.744;2022-08-19T03:44:48;7.93;;;5.15;;
10979;SDS011;5543;51.734;8.744;2022-08-19T03:47:16;6.65;;;4.65;;
10979;SDS011;5543;51.734;8.744;2022-08-19T03:49:46;9.98;;;5.13;;
10979;SDS011;5543;51.734;8.744;2022-08-19T03:52:14;9.05;;;5.68;;
10979;SDS011;5543;51.734;8.744;2022-08-19T03:54:42;7.88;;;5.05;;
10979;SDS011;5543;51.734;8.744;2022-08-19T03:57:11;10.82;;;5.45;;
10979;SDS011;5543;51.734;8.744;2022-08-19T03:59:39;8.18;;;5.20;;
10979;SDS011;5543;51.734;8.744;2022-08-19T04:02:08;8.65;;;5.32;;
10979;SDS011;5543;51.734;8.744;2022-08-19T04:04:38;9.77;;;5.47;;
10979;SDS011;5543;51.734;8.744;2022-08-19T04:07:09;10.38;;;5.82;;
10979;SDS011;5543;51.734;8.744;2022-08-19T04:09:39;7.50;;;5.65;;
10979;SDS011;5543;51.734;8.744;2022-08-19T04:12:07;14.07;;;6.47;;
10979;SDS011;5543;51.734;8.744;2022-08-19T04:14:35;8.82;;;4.90;;
10979;SDS011;5543;51.734;8.744;2022-08-19T04:17:03;9.48;;;5.68;;
10979;SDS011;5543;51.734;8.744;2022-08-19T04:19:32;9.25;;;5.28;;
10979;SDS011;5543;51.734;8.744;2022-08-19T04:22:01;8.85;;;5.55;;
10979;SDS011;5543;51.734;8.744;2022-08-19T04:24:31;10.02;;;5.43;;
10979;SDS011;5543;51.734;8.744;2022-08-19T04:27:00;12.13;;;5.97;;
10979;SDS011;5543;51.734;8.744;2022-08-19T04:29:29;8.75;;;6.38;;
10979;SDS011;5543;51.734;8.744;2022-08-19T04:31:58;14.43;;;6.03;;
10979;SDS011;5543;51.734;8.744;2022-08-19T04:34:35;12.20;;;6.53;;
10979;SDS011;5543;51.734;8.744;2022-08-19T04:37:23;8.00;;;5.75;;
10979;SDS011;5543;51.734;8.744;2022-08-19T04:40:02;8.98;;;5.82;;
10979;SDS011;5543;51.734;8.744;2022-08-19T04:42:50;9.32;;;4.97;;
10979;SDS011;5543;51.734;8.744;2022-08-19T04:45:20;7.18;;;5.50;;
10979;SDS011;5543;51.734;8.744;2022-08-19T04:47:48;8.05;;;5.05;;
10979;SDS011;5543;51.734;8.744;2022-08-19T04:50:39;9.75;;;5.97;;
10979;SDS011;5543;51.734;8.744;2022-08-19T04:53:08;10.93;;;5.82;;
10979;SDS011;5543;51.734;8.744;2022-08-19T04:55:41;11.35;;;5.78;;
10979;SDS011;5543;51.734;8.744;2022-08-19T04:58:10;11.95;;;6.55;;
10979;SDS011;5543;51.734;8.744;2022-08-19T05:00:38;10.55;;;6.38;;
10979;SDS011;5543;51.734;8.744;2022-08-19T05:03:07;10.27;;;6.53;;
10979;SDS011;5543;51.734;8.744;2022-08-19T05:05:37;12.75;;;6.75;;
10979;SDS011;5543;51.734;8.744;2022-08-19T05:08:10;10.50;;;6.60;;
10979;SDS011;5543;51.734;8.744;2022-08-19T05:10:41;10.00;;;5.90;;
10979;SDS011;5543;51.734;8.744;2022-08-19T05:13:10;10.50;;;6.70;;
10979;SDS011;5543;51.734;8.744;2022-08-19T05:15:38;13.13;;;7.90;;
10979;SDS011;5543;51.734;8.744;2022-08-19T05:18:07;11.93;;;5.70;;
10979;SDS011;5543;51.734;8.744;2022-08-19T05:20:52;9.70;;;5.78;;
10979;SDS011;5543;51.734;8.744;2022-08-19T05:23:38;11.23;;;7.28;;
10979;SDS011;5543;51.734;8.744;2022-08-19T05:26:08;12.07;;;6.40;;
10979;SDS011;5543;51.734;8.744;2022-08-19T05:28:37;11.07;;;6.75;;
10979;SDS011;5543;51.734;8.744;2022-08-19T05:31:05;10.30;;;6.15;;
10979;SDS011;5543;51.734;8.744;2022-08-19T05:33:33;11.30;;;7.13;;
10979;SDS011;5543;51.734;8.744;2022-08-19T05:36:02;10.88;;;5.80;;
10979;SDS011;5543;51.734;8.744;2022-08-19T05:38:30;10.10;;;5.63;;
10979;SDS011;5543;51.734;8.744;2022-08-19T05:40:59;10.52;;;6.03;;
10979;SDS011;5543;51.734;8.744;2022-08-19T05:43:28;9.88;;;6.35;;
10979;SDS011;5543;51.734;8.744;2022-08-19T05:45:57;9.95;;;5.88;;
10979;SDS011;5543;51.734;8.744;2022-08-19T05:48:25;10.10;;;5.45;;
10979;SDS011;5543;51.734;8.744;2022-08-19T05:50:54;11.40;;;6.10;;
10979;SDS011;5543;51.734;8.744;2022-08-19T05:53:25;10.55;;;6.78;;
10979;SDS011;5543;51.734;8.744;2022-08-19T05:55:53;11.43;;;6.05;;
10979;SDS011;5543;51.734;8.744;2022-08-19T05:58:24;10.10;;;6.65;;
10979;SDS011;5543;51.734;8.744;2022-08-19T06:00:54;10.25;;;6.50;;
10979;SDS011;5543;51.734;8.744;2022-08-19T06:03:23;10.90;;;7.10;;
10979;SDS011;5543;51.734;8.744;2022-08-19T06:05:51;9.35;;;6.30;;
10979;SDS011;5543;51.734;8.744;2022-08-19T06:08:19;8.60;;;5.55;;
10979;SDS011;5543;51.734;8.744;2022-08-19T06:11:11;8.85;;;6.07;;
10979;SDS011;5543;51.734;8.744;2022-08-19T06:13:42;12.13;;;6.70;;
10979;SDS011;5543;51.734;8.744;2022-08-19T06:16:12;14.30;;;6.82;;
10979;SDS011;5543;51.734;8.744;2022-08-19T06:18:49;10.50;;;6.03;;
10979;SDS011;5543;51.734;8.744;2022-08-19T06:21:19;10.38;;;6.13;;
10979;SDS011;5543;51.734;8.744;2022-08-19T06:23:48;7.72;;;5.40;;
10979;SDS011;5543;51.734;8.744;2022-08-19T06:26:18;7.82;;;5.22;;
10979;SDS011;5543;51.734;8.744;2022-08-19T06:28:47;10.65;;;5.93;;
10979;SDS011;5543;51.734;8.744;2022-08-19T06:31:18;10.65;;;5.85;;
10979;SDS011;5543;51.734;8.744;2022-08-19T06:33:48;12.50;;;7.25;;
10979;SDS011;5543;51.734;8.744;2022-08-19T06:36:18;9.30;;;6.05;;
10979;SDS011;5543;51.734;8.744;2022-08-19T06:38:51;10.25;;;6.13;;
10979;SDS011;5543;51.734;8.744;2022-08-19T06:41:19;13.30;;;7.45;;
10979;SDS011;5543;51.734;8.744;2022-08-19T06:43:47;10.05;;;6.25;;
10979;SDS011;5543;51.734;8.744;2022-08-19T06:46:20;9.27;;;5.82;;
10979;SDS011;5543;51.734;8.744;2022-08-19T06:48:49;8.05;;;5.80;;
10979;SDS011;5543;51.734;8.744;2022-08-19T06:51:19;11.15;;;6.50;;
10979;SDS011;5543;51.734;8.744;2022-08-19T06:53:50;9.90;;;5.90;;
10979;SDS011;5543;51.734;8.744;2022-08-19T06:56:21;9.25;;;6.15;;
10979;SDS011;5543;51.734;8.744;2022-08-19T06:58:51;10.23;;;5.65;;
10979;SDS011;5543;51.734;8.744;2022-08-19T07:01:21;9.65;;;5.95;;
10979;SDS011;5543;51.734;8.744;2022-08-19T07:03:49;9.55;;;5.88;;
10979;SDS011;5543;51.734;8.744;2022-08-19T07:06:18;12.00;;;6.22;;
10979;SDS011;5543;51.734;8.744;2022-08-19T07:09:08;12.05;;;6.22;;
10979;SDS011;5543;51.734;8.744;2022-08-19T07:11:37;8.75;;;6.10;;
10979;SDS011;5543;51.734;8.744;2022-08-19T07:14:05;6.82;;;4.50;;
10979;SDS011;5543;51.734;8.744;2022-08-19T07:16:46;8.75;;;5.78;;
10979;SDS011;5543;51.734;8.744;2022-08-19T07:19:16;11.27;;;6.78;;
10979;SDS011;5543;51.734;8.744;2022-08-19T07:21:46;9.85;;;6.50;;
10979;SDS011;5543;51.734;8.744;2022-08-19T07:24:15;8.85;;;5.88;;
10979;SDS011;5543;51.734;8.744;2022-08-19T07:26:45;7.95;;;5.65;;
10979;SDS011;5543;51.734;8.744;2022-08-19T07:29:17;7.75;;;5.65;;
10979;SDS011;5543;51.734;8.744;2022-08-19T07:31:55;12.93;;;4.78;;
10979;SDS011;5543;51.734;8.744;2022-08-19T07:34:26;9.85;;;5.65;;
10979;SDS011;5543;51.734;8.744;2022-08-19T07:36:56;11.52;;;6.03;;
10979;SDS011;5543;51.734;8.744;2022-08-19T07:39:27;9.98;;;6.43;;
10979;SDS011;5543;51.734;8.744;2022-08-19T07:41:57;9.63;;;5.97;;
10979;SDS011;5543;51.734;8.744;2022-08-19T07:44:26;12.30;;;5.70;;
10979;SDS011;5543;51.734;8.744;2022-08-19T07:46:57;14.68;;;6.72;;
10979;SDS011;5543;51.734;8.744;2022-08-19T07:49:26;9.80;;;5.60;;
10979;SDS011;5543;51.734;8.744;2022-08-19T07:51:57;16.80;;;6.20;;
10979;SDS011;5543;51.734;8.744;2022-08-19T07:54:28;9.52;;;5.78;;
10979;SDS011;5543;51.734;8.744;2022-08-19T07:57:00;8.02;;;4.70;;
10979;SDS011;5543;51.734;8.744;2022-08-19T07:59:29;5.85;;;3.85;;
10979;SDS011;5543;51.734;8.744;2022-08-19T08:01:58;10.52;;;5.00;;
10979;SDS011;5543;51.734;8.744;2022-08-19T08:04:28;7.55;;;5.22;;
10979;SDS011;5543;51.734;8.744;2022-08-19T08:07:14;14.35;;;5.03;;
10979;SDS011;5543;51.734;8.744;2022-08-19T08:09:57;9.20;;;4.88;;
10979;SDS011;5543;51.734;8.744;2022-08-19T08:12:31;5.65;;;4.72;;
10979;SDS011;5543;51.734;8.744;2022-08-19T08:15:05;4.55;;;3.38;;
10979;SDS011;5543;51.734;8.744;2022-08-19T08:17:39;5.32;;;4.15;;
10979;SDS011;5543;51.734;8.744;2022-08-19T08:20:17;6.78;;;4.50;;
10979;SDS011;5543;51.734;8.744;2022-08-19T08:22:46;6.43;;;4.35;;
10979;SDS011;5543;51.734;8.744;2022-08-19T08:25:32;6.82;;;4.20;;
10979;SDS011;5543;51.734;8.744;2022-08-19T08:28:03;5.93;;;4.25;;
10979;SDS011;5543;51.734;8.744;2022-08-19T08:30:36;6.97;;;4.18;;
10979;SDS011;5543;51.734;8.744;2022-08-19T08:33:12;4.63;;;3.85;;
10979;SDS011;5543;51.734;8.744;2022-08-19T08:35:40;10.10;;;4.68;;
10979;SDS011;5543;51.734;8.744;2022-08-19T08:38:09;5.75;;;4.00;;
10979;SDS011;5543;51.734;8.744;2022-08-19T08:40:39;5.20;;;3.83;;
10979;SDS011;5543;51.734;8.744;2022-08-19T08:43:17;7.28;;;3.80;;
10979;SDS011;5543;51.734;8.744;2022-08-19T08:45:51;4.75;;;3.88;;
10979;SDS011;5543;51.734;8.744;2022-08-19T08:48:27;6.97;;;3.88;;
10979;SDS011;5543;51.734;8.744;2022-08-19T08:51:02;4.30;;;3.63;;
10979;SDS011;5543;51.734;8.744;2022-08-19T08:53:34;4.20;;;3.80;;
10979;SDS011;5543;51.734;8.744;2022-08-19T08:56:07;5.63;;;4.32;;
10979;SDS011;5543;51.734;8.744;2022-08-19T08:58:46;4.70;;;3.55;;
10979;SDS011;5543;51.734;8.744;2022-08-19T09:01:22;5.40;;;3.50;;
10979;SDS011;5543;51.734;8.744;2022-08-19T09:03:57;3.67;;;3.38;;
10979;SDS011;5543;51.734;8.744;2022-08-19T09:06:29;4.82;;;4.03;;
10979;SDS011;5543;51.734;8.744;2022-08-19T09:09:10;3.97;;;3.40;;
10979;SDS011;5543;51.734;8.744;2022-08-19T09:11:46;4.47;;;3.42;;
10979;SDS011;5543;51.734;8.744;2022-08-19T09:14:23;4.20;;;3.05;;
10979;SDS011;5543;51.734;8.744;2022-08-19T09:17:18;3.95;;;3.03;;
10979;SDS011;5543;51.734;8.744;2022-08-19T09:20:00;3.55;;;3.03;;
10979;SDS011;5543;51.734;8.744;2022-08-19T09:22:34;3.88;;;3.35;;
10979;SDS011;5543;51.734;8.744;2022-08-19T09:25:04;3.58;;;3.28;;
10979;SDS011;5543;51.734;8.744;2022-08-19T09:27:35;4.72;;;2.80;;
10979;SDS011;5543;51.734;8.744;2022-08-19T09:30:10;5.45;;;3.75;;
10979;SDS011;5543;51.734;8.744;2022-08-19T09:32:41;6.45;;;3.88;;
10979;SDS011;5543;51.734;8.744;2022-08-19T09:35:13;3.10;;;2.88;;
10979;SDS011;5543;51.734;8.744;2022-08-19T09:37:42;4.07;;;2.00;;
10979;SDS011;5543;51.734;8.744;2022-08-19T09:40:11;2.50;;;2.05;;
10979;SDS011;5543;51.734;8.744;2022-08-19T09:42:40;2.38;;;2.17;;
10979;SDS011;5543;51.734;8.744;2022-08-19T09:45:16;2.67;;;2.20;;
10979;SDS011;5543;51.734;8.744;2022-08-19T09:47:48;2.58;;;2.30;;
10979;SDS011;5543;51.734;8.744;2022-08-19T09:50:21;3.30;;;3.00;;
10979;SDS011;5543;51.734;8.744;2022-08-19T09:52:51;2.38;;;2.17;;
10979;SDS011;5543;51.734;8.744;2022-08-19T09:55:23;2.85;;;2.35;;
10979;SDS011;5543;51.734;8.744;2022-08-19T09:57:59;4.53;;;2.80;;
10979;SDS011;5543;51.734;8.744;2022-08-19T10:00:28;3.85;;;3.13;;
10979;SDS011;5543;51.734;8.744;2022-08-19T10:02:57;3.03;;;2.67;;
10979;SDS011;5543;51.734;8.744;2022-08-19T10:05:27;3.47;;;3.17;;
10979;SDS011;5543;51.734;8.744;2022-08-19T10:08:20;2.53;;;2.33;;
10979;SDS011;5543;51.734;8.744;2022-08-19T10:10:52;2.95;;;2.50;;
10979;SDS011;5543;51.734;8.744;2022-08-19T10:13:23;2.65;;;2.45;;
10979;SDS011;5543;51.734;8.744;2022-08-19T10:15:55;2.85;;;2.40;;
10979;SDS011;5543;51.734;8.744;2022-08-19T10:18:30;2.63;;;2.42;;
10979;SDS011;5543;51.734;8.744;2022-08-19T10:21:05;2.70;;;2.50;;
10979;SDS011;5543;51.734;8.744;2022-08-19T10:23:37;3.55;;;2.80;;
10979;SDS011;5543;51.734;8.744;2022-08-19T10:26:07;2.90;;;2.45;;
10979;SDS011;5543;51.734;8.744;2022-08-19T10:28:36;4.35;;;3.13;;
10979;SDS011;5543;51.734;8.744;2022-08-19T10:31:05;2.60;;;2.38;;
10979;SDS011;5543;51.734;8.744;2022-08-19T10:33:34;3.13;;;2.80;;
10979;SDS011;5543;51.734;8.744;2022-08-19T10:36:21;2.90;;;2.53;;
10979;SDS011;5543;51.734;8.744;2022-08-19T10:38:51;3.03;;;2.50;;
10979;SDS011;5543;51.734;8.744;2022-08-19T10:41:24;2.85;;;2.63;;
10979;SDS011;5543;51.734;8.744;2022-08-19T10:43:56;2.55;;;2.35;;
10979;SDS011;5543;51.734;8.744;2022-08-19T10:46:29;4.47;;;2.42;;
10979;SDS011;5543;51.734;8.744;2022-08-19T10:48:59;2.53;;;2.33;;
10979;SDS011;5543;51.734;8.744;2022-08-19T10:51:29;2.30;;;2.10;;
10979;SDS011;5543;51.734;8.744;2022-08-19T10:54:15;2.80;;;2.60;;
10979;SDS011;5543;51.734;8.744;2022-08-19T10:56:58;2.95;;;2.67;;
10979;SDS011;5543;51.734;8.744;2022-08-19T10:59:25;2.75;;;2.55;;
10979;SDS011;5543;51.734;8.744;2022-08-19T11:02:01;3.03;;;2.75;;
10979;SDS011;5543;51.734;8.744;2022-08-19T11:04:32;2.65;;;2.45;;
10979;SDS011;5543;51.734;8.744;2022-08-19T11:07:02;3.78;;;2.55;;
10979;SDS011;5543;51.734;8.744;2022-08-19T11:09:35;2.78;;;2.58;;
10979;SDS011;5543;51.734;8.744;2022-08-19T11:12:05;2.97;;;2.72;;
10979;SDS011;5543;51.734;8.744;2022-08-19T11:14:35;2.60;;;2.40;;
10979;SDS011;5543;51.734;8.744;2022-08-19T11:17:04;2.63;;;2.42;;
10979;SDS011;5543;51.734;8.744;2022-08-19T11:19:33;3.03;;;2.58;;
10979;SDS011;5543;51.734;8.744;2022-08-19T11:22:03;2.42;;;2.22;;
10979;SDS011;5543;51.734;8.744;2022-08-19T11:24:39;3.47;;;3.17;;
10979;SDS011;5543;51.734;8.744;2022-08-19T11:27:08;4.82;;;2.75;;
10979;SDS011;5543;51.734;8.744;2022-08-19T11:29:38;3.22;;;2.92;;
10979;SDS011;5543;51.734;8.744;2022-08-19T11:32:07;2.80;;;2.60;;
10979;SDS011;5543;51.734;8.744;2022-08-19T11:34:37;5.07;;;2.55;;
10979;SDS011;5543;51.734;8.744;2022-08-19T11:37:06;2.38;;;2.17;;
10979;SDS011;5543;51.734;8.744;2022-08-19T11:39:35;2.60;;;2.40;;
10979;SDS011;5543;51.734;8.744;2022-08-19T11:42:05;2.75;;;2.40;;
10979;SDS011;5543;51.734;8.744;2022-08-19T11:44:54;2.40;;;2.15;;
10979;SDS011;5543;51.734;8.744;2022-08-19T11:47:22;2.17;;;1.92;;
10979;SDS011;5543;51.734;8.744;2022-08-19T11:49:53;2.30;;;2.10;;
10979;SDS011;5543;51.734;8.744;2022-08-19T11:52:23;2.30;;;2.10;;
10979;SDS011;5543;51.734;8.744;2022-08-19T11:54:51;2.10;;;1.90;;
10979;SDS011;5543;51.734;8.744;2022-08-19T11:57:20;2.20;;;2.00;;
10979;SDS011;5543;51.734;8.744;2022-08-19T11:59:48;2.05;;;1.85;;
10979;SDS011;5543;51.734;8.744;2022-08-19T12:02:19;2.15;;;2.00;;
10979;SDS011;5543;51.734;8.744;2022-08-19T12:04:48;2.05;;;1.88;;
10979;SDS011;5543;51.734;8.744;2022-08-19T12:07:16;2.40;;;2.05;;
10979;SDS011;5543;51.734;8.744;2022-08-19T12:09:46;4.18;;;2.22;;
10979;SDS011;5543;51.734;8.744;2022-08-19T12:12:15;5.47;;;2.13;;
10979;SDS011;5543;51.734;8.744;2022-08-19T12:14:43;2.60;;;1.90;;
10979;SDS011;5543;51.734;8.744;2022-08-19T12:17:12;2.20;;;2.05;;
10979;SDS011;5543;51.734;8.744;2022-08-19T12:19:41;3.50;;;1.80;;
10979;SDS011;5543;51.734;8.744;2022-08-19T12:22:09;1.55;;;1.45;;
10979;SDS011;5543;51.734;8.744;2022-08-19T12:24:38;1.88;;;1.70;;
10979;SDS011;5543;51.734;8.744;2022-08-19T12:27:08;3.40;;;2.10;;
10979;SDS011;5543;51.734;8.744;2022-08-19T12:29:38;2.85;;;2.00;;
10979;SDS011;5543;51.734;8.744;2022-08-19T12:32:07;1.80;;;1.70;;
10979;SDS011;5543;51.734;8.744;2022-08-19T12:34:38;1.83;;;1.73;;
10979;SDS011;5543;51.734;8.744;2022-08-19T12:37:06;1.73;;;1.52;;
10979;SDS011;5543;51.734;8.744;2022-08-19T12:39:36;2.30;;;1.88;;
10979;SDS011;5543;51.734;8.744;2022-08-19T12:42:05;2.72;;;2.35;;
10979;SDS011;5543;51.734;8.744;2022-08-19T12:44:35;1.92;;;1.73;;
10979;SDS011;5543;51.734;8.744;2022-08-19T12:47:06;2.85;;;1.98;;
10979;SDS011;5543;51.734;8.744;2022-08-19T12:49:35;3.05;;;1.90;;
10979;SDS011;5543;51.734;8.744;2022-08-19T12:52:20;2.15;;;1.60;;
10979;SDS011;5543;51.734;8.744;2022-08-19T12:54:49;2.20;;;2.00;;
10979;SDS011;5543;51.734;8.744;2022-08-19T12:57:21;2.45;;;2.00;;
10979;SDS011;5543;51.734;8.744;2022-08-19T12:59:58;2.10;;;1.92;;
10979;SDS011;5543;51.734;8.744;2022-08-19T13:02:30;3.05;;;2.22;;
10979;SDS011;5543;51.734;8.744;2022-08-19T13:05:04;2.35;;;2.13;;
10979;SDS011;5543;51.734;8.744;2022-08-19T13:07:35;3.88;;;2.17;;
10979;SDS011;5543;51.734;8.744;2022-08-19T13:10:05;2.20;;;2.00;;
10979;SDS011;5543;51.734;8.744;2022-08-19T13:12:35;2.97;;;2.20;;
10979;SDS011;5543;51.734;8.744;2022-08-19T13:15:04;2.53;;;2.30;;
10979;SDS011;5543;51.734;8.744;2022-08-19T13:17:36;2.42;;;2.15;;
10979;SDS011;5543;51.734;8.744;2022-08-19T13:20:06;2.50;;;2.30;;
10979;SDS011;5543;51.734;8.744;2022-08-19T13:22:36;2.00;;;1.90;;
10979;SDS011;5543;51.734;8.744;2022-08-19T13:25:06;2.17;;;1.98;;
10979;SDS011;5543;51.734;8.744;2022-08-19T13:27:37;2.35;;;2.15;;
10979;SDS011;5543;51.734;8.744;2022-08-19T13:30:10;2.30;;;2.10;;
10979;SDS011;5543;51.734;8.744;2022-08-19T13:33:16;2.05;;;1.92;;
10979;SDS011;5543;51.734;8.744;2022-08-19T13:35:46;2.58;;;2.38;;
10979;SDS011;5543;51.734;8.744;2022-08-19T13:38:16;2.45;;;2.25;;
10979;SDS011;5543;51.734;8.744;2022-08-19T13:40:49;4.38;;;2.47;;
10979;SDS011;5543;51.734;8.744;2022-08-19T13:43:21;2.70;;;2.50;;
10979;SDS011;5543;51.734;8.744;2022-08-19T13:45:51;2.30;;;2.10;;
10979;SDS011;5543;51.734;8.744;2022-08-19T13:48:21;2.35;;;2.15;;
10979;SDS011;5543;51.734;8.744;2022-08-19T13:50:52;2.92;;;2.55;;
10979;SDS011;5543;51.734;8.744;2022-08-19T13:53:51;2.70;;;2.50;;
10979;SDS011;5543;51.734;8.744;2022-08-19T13:56:19;4.05;;;1.98;;
10979;SDS011;5543;51.734;8.744;2022-08-19T13:58:53;2.95;;;2.67;;
10979;SDS011;5543;51.734;8.744;2022-08-19T14:01:24;3.75;;;2.63;;
10979;SDS011;5543;51.734;8.744;2022-08-19T14:03:53;2.47;;;2.28;;
10979;SDS011;5543;51.734;8.744;2022-08-19T14:06:53;2.42;;;2.22;;
10979;SDS011;5543;51.734;8.744;2022-08-19T14:09:22;2.55;;;2.35;;
10979;SDS011;5543;51.734;8.744;2022-08-19T14:11:50;3.83;;;2.38;;
10979;SDS011;5543;51.734;8.744;2022-08-19T14:14:19;2.90;;;2.58;;
10979;SDS011;5543;51.734;8.744;2022-08-19T14:16:50;4.50;;;2.75;;
10979;SDS011;5543;51.734;8.744;2022-08-19T14:19:23;2.80;;;2.60;;
10979;SDS011;5543;51.734;8.744;2022-08-19T14:22:14;2.58;;;2.38;;
10979;SDS011;5543;51.734;8.744;2022-08-19T14:25:27;3.55;;;3.13;;
10979;SDS011;5543;51.734;8.744;2022-08-19T14:27:57;2.78;;;2.58;;
10979;SDS011;5543;51.734;8.744;2022-08-19T14:30:28;5.13;;;4.60;;
10979;SDS011;5543;51.734;8.744;2022-08-19T14:32:58;3.28;;;2.97;;
10979;SDS011;5543;51.734;8.744;2022-08-19T14:35:30;2.70;;;2.50;;
10979;SDS011;5543;51.734;8.744;2022-08-19T14:38:06;2.85;;;2.65;;
10979;SDS011;5543;51.734;8.744;2022-08-19T14:41:09;2.58;;;2.38;;
10979;SDS011;5543;51.734;8.744;2022-08-19T14:44:15;2.83;;;2.63;;
10979;SDS011;5543;51.734;8.744;2022-08-19T14:50:13;2.95;;;2.67;;
10979;SDS011;5543;51.734;8.744;2022-08-19T14:53:03;2.80;;;2.50;;
10979;SDS011;5543;51.734;8.744;2022-08-19T14:55:52;2.63;;;2.42;;
10979;SDS011;5543;51.734;8.744;2022-08-19T14:58:53;4.70;;;2.53;;
10979;SDS011;5543;51.734;8.744;2022-08-19T15:01:32;2.85;;;2.60;;
10979;SDS011;5543;51.734;8.744;2022-08-19T15:04:23;3.75;;;2.70;;
10979;SDS011;5543;51.734;8.744;2022-08-19T15:07:00;2.63;;;2.42;;
10979;SDS011;5543;51.734;8.744;2022-08-19T15:10:07;2.67;;;2.47;;
10979;SDS011;5543;51.734;8.744;2022-08-19T15:12:43;2.47;;;2.25;;
10979;SDS011;5543;51.734;8.744;2022-08-19T15:15:36;3.35;;;3.00;;
10979;SDS011;5543;51.734;8.744;2022-08-19T15:18:45;3.47;;;2.58;;
10979;SDS011;5543;51.734;8.744;2022-08-19T15:25:16;2.85;;;2.42;;
10979;SDS011;5543;51.734;8.744;2022-08-19T15:28:02;2.50;;;2.30;;
10979;SDS011;5543;51.734;8.744;2022-08-19T15:30:57;3.95;;;3.00;;
10979;SDS011;5543;51.734;8.744;2022-08-19T15:33:55;3.33;;;2.60;;
10979;SDS011;5543;51.734;8.744;2022-08-19T15:40:42;2.90;;;2.60;;
10979;SDS011;5543;51.734;8.744;2022-08-19T15:43:37;2.78;;;2.58;;
10979;SDS011;5543;51.734;8.744;2022-08-19T15:46:31;2.92;;;2.70;;